Time;durP1;ratioP1;P1;durP2;ratioP2;P2;SDS_P1;SDS_P2;PMS_P1;PMS_P2;Temp;Humidity;BMP_temperature;BMP_pressure;BME280_temperature;BME280_humidity;BME280_pressure;Samples;Min_cycle;Max_cycle;Signal;HPM_P1;HPM_P2
2023/01/22 01:24:46;;;;;;;;;47.00;38.67;;;;;2.64;57.56;103024.34;1931525;29;3585685;-88
2023/01/22 01:28:45;;;;;;;;;47.67;40.00;;;;;2.57;57.48;103025.81;1929567;28;3580429;-88
2023/01/22 02:28:38;;;;;;;;;55.33;42.67;;;;;2.40;57.52;103040.75;1913824;29;3604400;-84
2023/01/22 02:40:28;;;;;;;;;59.67;44.00;;;;;2.45;57.55;103034.91;1935585;28;3623198;-87
2023/01/22 02:42:18;;;;;;;;;;;;;;;;;;;;;
2023/01/22 02:52:27;;;;;;;;;48.00;40.00;;;;;2.34;57.46;103036.22;1915630;29;2847192;-86
2023/01/22 02:53:38;;;;;;;;;60.00;43.00;;;;;2.34;57.40;103037.09;1944731;29;3625254;-85
2023/01/22 03:03:27;;;;;;;;;59.00;45.00;;;;;2.31;57.39;103042.16;1921935;29;2876310;-85
2023/01/22 03:07:08;;;;;;;;;65.00;45.67;;;;;2.32;57.84;103045.66;1913828;29;3630479;-87
2023/01/22 03:08:43;;;;;;;;;56.00;42.00;;;;;2.32;58.14;103043.06;1915925;29;2874256;-88
2023/01/22 03:47:03;;;;;;;;;52.33;41.00;;;;;2.26;57.36;103022.94;1926924;29;3595048;-85
2023/01/22 04:00:06;;;;;;;;;57.33;40.67;;;;;2.28;58.19;103035.97;1930599;28;3601640;-87
2023/01/22 04:04:46;;;;;;;;;;;;;;;;;;;;;
2023/01/22 04:08:41;;;;;;;;;60.33;44.33;;;;;2.15;57.83;103035.47;1944051;28;3626327;-87
2023/01/22 04:10:11;;;;;;;;;56.67;45.67;;;;;2.14;57.54;103033.72;1945519;28;3602311;-87
2023/01/22 04:23:15;;;;;;;;;49.33;41.33;;;;;2.25;57.35;103022.03;2012389;23;3594013;-83
2023/01/22 04:24:38;;;;;;;;;46.50;35.00;;;;;2.23;57.52;103023.69;1962451;28;2873221;-85
2023/01/22 04:26:53;;;;;;;;;56.33;46.33;;;;;2.22;56.75;103010.69;1936975;28;3604405;-86
2023/01/22 04:28:22;;;;;;;;;52.50;40.00;;;;;2.20;57.17;103017.50;1925400;29;2849287;-87
2023/01/22 04:36:19;;;;;;;;;47.00;37.67;;;;;2.18;57.86;103014.84;1922429;29;3605821;-86
2023/01/22 04:37:45;;;;;;;;;60.00;43.00;;;;;2.18;57.00;103012.25;1900825;29;2869414;-86
2023/01/22 04:39:33;;;;;;;;;49.00;39.00;;;;;2.17;57.82;103014.81;1899999;29;3591955;-86
2023/01/22 04:47:10;;;;;;;;;29.67;26.67;;;;;2.07;57.25;103005.75;1892876;29;3594070;-85
2023/01/22 04:50:43;;;;;;;;;50.33;39.00;;;;;2.04;57.12;103006.53;1884883;29;3607574;-84
2023/01/22 04:56:11;;;;;;;;;45.00;37.00;;;;;2.01;57.57;102996.03;1908320;29;3604414;-83
2023/01/22 04:58:18;;;;;;;;;38.67;30.67;;;;;2.04;57.73;102987.47;1898904;29;3611724;-85
2023/01/22 05:02:36;;;;;;;;;;;;;;;;;;;;;
2023/01/22 05:06:45;;;;;;;;;;;;;;;;;;;;;
2023/01/22 05:08:02;;;;;;;;;47.67;37.33;;;;;2.00;57.72;102984.75;1868670;29;3600280;-84
2023/01/22 05:28:14;;;;;;;;;46.50;32.00;;;;;2.01;57.74;102968.38;1914773;29;2871128;-86
2023/01/22 05:29:58;;;;;;;;;49.33;39.00;;;;;2.02;58.18;102977.91;1913737;29;3584651;-86
2023/01/22 05:33:51;;;;;;;;;43.33;36.67;;;;;2.00;57.42;102958.81;1934164;29;3598200;-86
2023/01/22 05:35:32;;;;;;;;;35.00;25.00;;;;;2.00;57.34;102973.50;1936590;29;3570049;-83
2023/01/22 05:44:34;;;;;;;;;41.00;33.33;;;;;2.00;58.00;102981.28;2377036;23;2858766;-84
2023/01/22 05:46:04;;;;;;;;;44.50;34.50;;;;;2.04;57.46;102979.69;1951799;29;2865299;-85
2023/01/22 05:47:16;;;;;;;;;44.67;35.33;;;;;2.04;57.85;102969.31;1929474;29;3587812;-84
2023/01/22 05:48:31;;;;;;;;;41.33;33.33;;;;;2.04;57.27;102969.31;1960985;29;3590857;-85
2023/01/22 05:49:59;;;;;;;;;23.50;18.00;;;;;2.04;57.54;102969.31;1921298;29;2816983;-86
2023/01/22 05:51:41;;;;;;;;;57.00;41.50;;;;;2.07;57.42;102964.25;1926482;28;2845038;-86
2023/01/22 05:57:12;;;;;;;;;39.00;31.67;;;;;2.09;57.63;102968.69;1946208;29;3588774;-85
2023/01/22 05:58:23;;;;;;;;;42.67;37.00;;;;;2.12;57.89;102965.31;1930009;29;3587768;-83
2023/01/22 06:03:57;;;;;;;;;43.33;34.33;;;;;2.19;57.72;102969.91;1921882;29;3577377;-85
2023/01/22 06:12:36;;;;;;;;;44.50;35.00;;;;;2.25;58.00;102972.72;1866645;30;2875330;-86
2023/01/22 06:14:18;;;;;;;;;49.00;36.67;;;;;2.31;58.35;102979.00;1832209;30;3614830;-85
2023/01/22 06:16:25;;;;;;;;;33.00;26.33;;;;;2.32;57.63;102975.59;1854861;30;1841999;-85
2023/01/22 06:20:38;;;;;;;;;42.00;33.33;;;;;2.30;57.72;102974.59;1825975;30;3609625;-85
2023/01/22 06:22:22;;;;;;;;;;;;;;;;;;;;;
2023/01/22 06:26:45;;;;;;;;;45.33;31.00;;;;;2.33;57.62;102973.03;1832065;30;3619011;-86
2023/01/22 06:30:16;;;;;;;;;39.33;31.67;;;;;2.36;58.73;102965.38;1843614;30;3588965;-86
2023/01/22 06:31:37;;;;;;;;;47.00;34.33;;;;;2.38;58.29;102968.00;1844008;30;3604421;-86
2023/01/22 06:33:44;;;;;;;;;48.00;32.67;;;;;2.34;57.53;102967.03;1821310;30;3633558;-85
2023/01/22 06:35:33;;;;;;;;;44.67;35.00;;;;;2.34;57.53;102960.94;1817095;30;3608607;-86
2023/01/22 06:50:35;;;;;;;;;50.00;36.00;;;;;2.37;58.19;102971.44;1858625;30;3624250;-86
2023/01/22 06:52:37;;;;;;;;;45.33;36.00;;;;;2.39;58.92;102969.78;1849825;30;3603405;-86
2023/01/22 07:00:30;;;;;;;;;44.33;38.00;;;;;2.31;58.69;102979.88;1859735;30;3594008;-83
2023/01/22 07:01:41;;;;;;;;;48.33;39.00;;;;;2.30;58.69;102977.22;1889130;30;3585659;-83
2023/01/22 07:02:53;;;;;;;;;55.33;38.00;;;;;2.32;58.79;102985.97;1900515;29;3625307;-83
2023/01/22 07:04:05;;;;;;;;;44.33;33.33;;;;;2.33;58.39;102982.53;1880240;29;3615911;-84
2023/01/22 07:05:29;;;;;;;;;42.33;34.00;;;;;2.33;58.46;103001.59;1887445;29;3609708;-85
2023/01/22 07:08:56;;;;;;;;;41.67;36.67;;;;;2.27;58.63;102997.88;1914295;29;3605451;-86
2023/01/22 07:10:11;;;;;;;;;43.67;35.33;;;;;2.27;59.31;102992.69;1930661;29;3613833;-84
2023/01/22 07:11:23;;;;;;;;;38.67;28.33;;;;;2.27;59.81;103003.06;1929056;28;3599280;-85
2023/01/22 07:12:42;;;;;;;;;45.33;37.00;;;;;2.27;59.46;103000.47;1971176;28;3614179;-85
2023/01/22 07:14:12;;;;;;;;;44.33;37.00;;;;;2.25;59.42;103000.38;1930859;29;3594022;-85
2023/01/22 07:16:02;;;;;;;;;55.00;39.33;;;;;2.24;59.64;102994.34;1923256;29;3598200;-85
2023/01/22 07:17:13;;;;;;;;;43.33;34.00;;;;;2.23;59.68;103002.94;1956846;28;3604808;-84
2023/01/22 07:18:25;;;;;;;;;44.80;38.00;;;;;2.25;59.62;102996.09;1949552;29;3593970;-85
2023/01/22 07:19:43;;;;;;;;;46.40;38.00;;;;;2.22;59.93;103016.72;1971887;29;3588244;-86
2023/01/22 07:23:08;;;;;;;;;46.00;35.00;;;;;2.24;60.67;103006.44;1931383;29;2856535;-85
2023/01/22 07:25:27;;;;;;;;;54.33;40.00;;;;;2.25;59.48;103003.88;1913917;29;3591871;-85
2023/01/22 07:27:42;;;;;;;;;53.67;38.67;;;;;2.23;59.70;103023.69;1929276;29;3606501;-85
2023/01/22 07:33:56;;;;;;;;;43.67;39.00;;;;;2.23;60.33;103028.88;1886004;29;3585646;-85
2023/01/22 07:35:09;;;;;;;;;38.83;28.50;;;;;2.24;60.24;103019.41;1940571;29;2864946;-84
2023/01/22 07:36:20;;;;;;;;;55.00;40.00;;;;;2.24;59.78;103032.38;1926847;29;2856484;-84
2023/01/22 07:37:35;;;;;;;;;47.40;37.00;;;;;2.24;60.03;103037.56;1913953;29;3598103;-84
2023/01/22 07:38:45;;;;;;;;;64.00;48.50;;;;;2.24;60.60;103029.78;1902887;29;2880509;-84
2023/01/22 07:39:57;;;;;;;;;44.40;39.00;;;;;2.27;59.97;103039.41;1932384;29;3591912;-84
2023/01/22 07:41:25;;;;;;;;;44.67;36.00;;;;;2.27;60.56;103034.22;1950457;29;3576267;-86
2023/01/22 07:42:45;;;;;;;;;52.67;39.00;;;;;2.28;59.96;103035.97;1948878;29;3589863;-84
2023/01/22 07:44:16;;;;;;;;;;;;;;;;;;;;;
2023/01/22 07:45:28;;;;;;;;;39.33;33.00;;;;;2.30;59.99;103034.31;1928036;28;3604387;-84
2023/01/22 07:46:56;;;;;;;;;42.67;34.67;;;;;2.31;60.35;103038.69;1939559;29;3585638;-85
2023/01/22 07:48:20;;;;;;;;;;;;;;;;;;;;;
2023/01/22 07:49:39;;;;;;;;;47.33;37.67;;;;;2.35;60.31;103035.38;1951925;29;3592438;-84
2023/01/22 07:52:54;;;;;;;;;53.33;41.00;;;;;2.36;59.94;103034.56;1908347;29;3606497;-86
2023/01/22 07:54:07;;;;;;;;;53.00;39.00;;;;;2.37;59.66;103025.97;1929269;29;2862793;-85
2023/01/22 07:56:22;;;;;;;;;;;;;;;;;;;;;
2023/01/22 07:57:58;;;;;;;;;45.33;37.00;;;;;2.42;59.79;103028.72;1928158;29;3612775;-85
2023/01/22 08:01:24;;;;;;;;;48.00;37.00;;;;;2.42;60.27;103045.16;1909485;29;2839925;-84
2023/01/22 08:03:02;;;;;;;;;40.33;32.33;;;;;2.38;60.17;103043.28;1936526;29;3588810;-85
2023/01/22 08:04:25;;;;;;;;;39.33;34.67;;;;;2.36;60.09;103044.94;1942295;29;3572128;-85
2023/01/22 08:08:47;;;;;;;;;38.00;34.00;;;;;2.26;60.08;103059.28;1910528;29;2864856;-86
2023/01/22 08:10:17;;;;;;;;;42.00;36.33;;;;;2.21;60.50;103051.31;1908574;29;3600240;-85
2023/01/22 08:12:47;;;;;;;;;;;;;;;;;;;;;
2023/01/22 08:14:00;;;;;;;;;39.00;32.00;;;;;2.20;60.04;103052.13;1899050;29;2866007;-84
2023/01/22 08:15:50;;;;;;;;;51.67;38.00;;;;;2.21;60.91;103040.03;1906295;29;3607520;-85
2023/01/22 08:17:05;;;;;;;;;51.00;35.67;;;;;2.20;60.81;103044.34;1887054;29;3594371;-85
2023/01/22 08:18:19;;;;;;;;;47.00;39.00;;;;;2.21;60.88;103046.13;1907529;29;3577390;-84
2023/01/22 08:19:33;;;;;;;;;44.00;37.00;;;;;2.21;60.75;103051.31;1915141;29;2852377;-84
2023/01/22 08:20:54;;;;;;;;;;;;;;;;;;;;;
2023/01/22 08:22:08;;;;;;;;;53.33;38.67;;;;;2.24;60.71;103059.22;1898243;29;3591351;-85
2023/01/22 08:23:19;;;;;;;;;44.33;38.33;;;;;2.25;60.39;103052.28;1951822;29;3600621;-84
2023/01/22 08:24:34;;;;;;;;;40.00;32.33;;;;;2.26;60.48;103046.28;1963945;29;3622146;-84
2023/01/22 08:26:07;;;;;;;;;44.00;36.00;;;;;2.27;60.70;103044.59;1924805;29;2850330;-85
2023/01/22 08:27:24;;;;;;;;;50.50;39.00;;;;;2.28;60.54;103062.81;1954837;29;2845046;-85
2023/01/22 08:28:56;;;;;;;;;43.00;35.67;;;;;2.25;60.42;103065.28;1953968;29;3586722;-85
2023/01/22 08:30:11;;;;;;;;;41.00;36.33;;;;;2.25;60.16;103066.16;1922944;29;3609606;-84
2023/01/22 08:31:53;;;;;;;;;32.33;26.00;;;;;2.25;60.23;103068.75;1977068;29;1854946;-84
2023/01/22 08:33:27;;;;;;;;;49.00;37.00;;;;;2.24;60.35;103068.72;1932301;28;2863231;-84
2023/01/22 08:35:17;;;;;;;;;44.00;35.67;;;;;2.23;60.33;103067.81;1930926;28;3596774;-85
2023/01/22 08:36:51;;;;;;;;;36.67;26.67;;;;;2.25;59.80;103076.53;1890430;29;3599205;-85
2023/01/22 08:38:38;;;;;;;;;;;;;;;;;;;;;
2023/01/22 08:40:14;;;;;;;;;43.00;37.67;;;;;2.27;60.76;103070.53;1917597;29;3587791;-85
2023/01/22 08:42:00;;;;;;;;;37.67;36.00;;;;;2.25;59.85;103063.56;1946044;28;3597144;-85
2023/01/22 08:43:15;;;;;;;;;46.33;34.33;;;;;2.28;60.21;103075.78;1907825;29;3624569;-85
2023/01/22 08:44:34;;;;;;;;;41.00;35.50;;;;;2.26;61.06;103067.06;1930958;28;2870085;-85
2023/01/22 08:46:14;;;;;;;;;50.50;37.50;;;;;2.25;60.32;103057.50;1934106;28;2871161;-85
2023/01/22 08:47:42;;;;;;;;;44.50;37.00;;;;;2.24;60.55;103067.00;1922775;29;2863847;-84
2023/01/22 08:49:20;;;;;;;;;46.00;37.00;;;;;2.24;60.38;103087.78;1929829;28;2877412;-86
2023/01/22 08:50:47;;;;;;;;;49.00;37.33;;;;;2.23;60.47;103075.59;1930154;28;3600783;-85
2023/01/22 08:51:58;;;;;;;;;46.00;37.00;;;;;2.23;60.48;103078.19;1928741;28;2874598;-84
2023/01/22 08:53:15;;;;;;;;;42.67;32.00;;;;;2.24;60.29;103081.69;1939590;28;3608522;-84
2023/01/22 08:54:37;;;;;;;;;45.00;33.33;;;;;2.25;60.22;103073.06;1928874;28;3632568;-84
2023/01/22 08:56:41;;;;;;;;;44.33;34.67;;;;;2.25;60.84;103081.75;1923455;29;3623213;-88
2023/01/22 08:57:57;;;;;;;;;39.33;31.33;;;;;2.23;60.83;103075.59;1922060;29;3581874;-85
2023/01/22 08:59:08;;;;;;;;;37.67;35.00;;;;;2.19;60.48;103086.69;1945101;29;3595040;-84
2023/01/22 09:00:29;;;;;;;;;46.33;33.33;;;;;2.19;60.95;103088.41;1956804;29;3634645;-85
2023/01/22 09:02:26;;;;;;;;;41.00;36.67;;;;;2.17;60.42;103092.66;1927738;28;3588790;-85
2023/01/22 09:03:48;;;;;;;;;;;;;;;;;;;;;
2023/01/22 09:05:10;;;;;;;;;49.33;34.00;;;;;2.15;61.25;103084.78;1923380;29;3626320;-86
2023/01/22 09:06:25;;;;;;;;;30.67;29.67;;;;;2.12;60.33;103087.28;1920226;29;3589823;-86
2023/01/22 09:08:09;;;;;;;;;42.33;30.67;;;;;2.11;60.34;103080.28;1945196;29;3608928;-85
2023/01/22 09:09:23;;;;;;;;;39.00;27.00;;;;;2.12;60.88;103089.88;1921695;29;3599182;-85
2023/01/22 09:11:10;;;;;;;;;47.00;34.33;;;;;2.11;60.89;103082.91;1946444;29;3601280;-85
2023/01/22 09:12:21;;;;;;;;;40.67;28.33;;;;;2.14;60.73;103083.03;1916757;28;3601273;-84
2023/01/22 09:13:44;;;;;;;;;39.67;36.33;;;;;2.17;60.85;103079.66;1940096;28;3596096;-85
2023/01/22 09:15:31;;;;;;;;;;;;;;;;;;;;;
2023/01/22 09:21:25;;;;;;;;;44.67;33.00;;;;;2.25;61.03;103070.47;1937256;29;3628411;-86
2023/01/22 09:23:21;;;;;;;;;36.67;33.33;;;;;2.22;61.18;103066.03;1915031;29;3602351;-86
2023/01/22 09:28:59;;;;;;;;;19.50;17.50;;;;;3.60;76.36;103042.41;1984482;28;2823163;-78
2023/01/22 09:30:13;;;;;;;;;19.75;16.50;;;;;4.55;75.06;103040.13;2001844;27;1853371;-84
2023/01/22 09:31:23;;;;;;;;;11.00;9.33;;;;;5.54;73.71;103035.84;2007118;27;3489826;-85
2023/01/22 09:32:35;;;;;;;;;10.00;9.33;;;;;6.46;72.43;103034.53;2036151;27;2774372;-81
2023/01/22 09:33:50;;;;;;;;;7.17;6.50;;;;;7.33;70.17;103034.47;2041261;28;2740886;-84
2023/01/22 09:35:00;;;;;;;;;13.33;8.00;;;;;8.13;68.73;103040.06;2014903;28;2763826;-83
2023/01/22 09:36:16;;;;;;;;;10.33;9.00;;;;;8.88;67.31;103039.31;2029134;28;2772222;-88
2023/01/22 09:37:27;;;;;;;;;11.00;9.00;;;;;9.56;66.11;103039.94;2014195;28;2768091;-86
2023/01/22 09:38:39;;;;;;;;;10.00;8.00;;;;;10.19;65.07;103029.88;2038763;28;2752332;-82
2023/01/22 09:39:52;;;;;;;;;10.00;5.50;;;;;10.78;64.13;103035.44;2019077;28;2749263;-82
2023/01/22 09:41:11;;;;;;;;;10.67;9.00;;;;;11.33;62.93;103035.53;1990816;28;2767092;-82
2023/01/22 09:42:27;;;;;;;;;11.00;8.00;;;;;11.89;61.75;103032.00;2028634;28;1827322;-83
2023/01/22 09:43:59;;;;;;;;;9.00;7.00;;;;;12.49;61.02;103039.78;1991000;28;3466971;-88
2023/01/22 09:45:15;;;;;;;;;9.83;8.83;;;;;12.94;59.98;103025.47;2040207;28;2752384;-85
2023/01/22 09:46:43;;;;;;;;;9.67;9.67;;;;;13.34;59.15;103034.00;1982946;28;3486694;-85
2023/01/22 09:47:59;;;;;;;;;7.67;7.00;;;;;13.80;58.08;103043.31;2010948;28;2731708;-82
2023/01/22 09:49:16;;;;;;;;;10.00;8.33;;;;;14.18;57.70;103035.00;2028301;28;1833616;-87
2023/01/22 09:50:32;;;;;;;;;7.50;7.50;;;;;14.53;57.00;103040.75;2018772;28;2740922;-91
2023/01/22 09:51:50;;;;;;;;;6.00;5.67;;;;;14.83;56.48;103035.97;1985715;28;2748173;-86
2023/01/22 09:53:10;;;;;;;;;8.50;6.50;;;;;15.16;55.66;103034.63;2034286;27;2741276;-87
2023/01/22 09:54:22;;;;;;;;;8.00;4.33;;;;;15.44;54.83;103042.13;1984610;28;2748251;-87
2023/01/22 09:55:42;;;;;;;;;7.33;5.00;;;;;15.71;54.47;103045.19;2031521;28;2745057;-84
2023/01/22 09:56:58;;;;;;;;;3.83;3.33;;;;;15.96;53.83;103043.88;2008564;27;2746115;-86
2023/01/22 09:58:16;;;;;;;;;8.67;5.33;;;;;16.20;53.53;103053.16;1985111;28;2746126;-86
2023/01/22 09:59:35;;;;;;;;;9.00;6.00;;;;;16.41;52.82;103053.63;2073364;27;2744086;-83
2023/01/22 10:00:58;;;;;;;;;6.50;6.00;;;;;16.65;52.50;103043.41;2017290;28;2740954;-86
2023/01/22 10:02:38;;;;;;;;;8.67;6.00;;;;;16.90;52.07;103041.09;2017728;28;2736752;-84
2023/01/22 10:03:55;;;;;;;;;8.67;6.17;;;;;17.09;51.21;103046.84;2009371;28;2740950;-85
2023/01/22 10:05:30;;;;;;;;;4.17;2.17;;;;;17.30;51.20;103045.50;2004385;28;2732572;-84
2023/01/22 10:06:44;;;;;;;;;10.33;6.33;;;;;17.45;50.69;103043.34;1991355;28;2751787;-86
2023/01/22 10:08:16;;;;;;;;;7.50;5.00;;;;;17.62;50.45;103042.91;2036393;28;2745100;-88
2023/01/22 10:09:30;;;;;;;;;5.67;5.33;;;;;17.76;50.16;103034.56;1990102;28;2744065;-88
2023/01/22 10:10:43;;;;;;;;;8.00;5.67;;;;;17.89;49.71;103047.53;2041194;28;2726335;-80
2023/01/22 10:11:54;;;;;;;;;4.33;4.33;;;;;18.02;49.44;103050.75;1993698;27;2748225;-77
2023/01/22 10:13:05;;;;;;;;;11.33;6.00;;;;;18.13;49.18;103045.09;2017407;28;2749217;-80
2023/01/22 10:14:19;;;;;;;;;7.00;6.00;;;;;18.26;48.58;103050.09;2038344;27;2741962;-79
2023/01/22 10:15:29;;;;;;;;;4.00;4.00;;;;;18.36;48.33;103051.59;2015590;28;2752374;-80
2023/01/22 10:16:40;;;;;;;;;9.00;6.00;;;;;18.44;48.06;103054.03;2040249;27;2746084;-79
2023/01/22 10:17:54;;;;;;;;;7.00;5.67;;;;;18.53;48.11;103052.88;1984479;28;2746141;-79
2023/01/22 10:19:40;;;;;;;;;9.83;7.83;;;;;18.63;47.58;103049.00;2042963;27;2740906;-78
2023/01/22 10:20:52;;;;;;;;;8.33;6.00;;;;;18.71;47.61;103046.13;1990666;28;3452368;-79
2023/01/22 10:22:14;;;;;;;;;5.67;4.67;;;;;18.80;47.55;103046.72;2006924;28;3461714;-81
2023/01/22 10:23:25;;;;;;;;;4.67;4.67;;;;;18.86;47.57;103039.44;2014087;28;2750292;-80
2023/01/22 10:24:35;;;;;;;;;8.67;4.00;;;;;18.93;46.74;103033.91;2006866;27;2747228;-81
2023/01/22 10:25:47;;;;;;;;;5.00;2.00;;;;;18.98;46.86;103027.50;2035962;27;2739875;-81
2023/01/22 10:27:11;;;;;;;;;7.83;7.33;;;;;19.05;46.65;103030.84;2016449;27;2740918;-79
2023/01/22 10:28:27;;;;;;;;;7.33;6.00;;;;;19.11;46.82;103030.63;2003546;27;2746153;-80
2023/01/22 10:29:38;;;;;;;;;5.33;5.00;;;;;19.18;46.24;103022.47;2015202;28;2744027;-79
2023/01/22 10:30:49;;;;;;;;;6.67;5.00;;;;;19.22;46.16;103030.31;2020085;27;2730477;-78
2023/01/22 10:32:16;;;;;;;;;8.33;6.00;;;;;19.28;46.12;103023.91;2043123;27;2733603;-78
2023/01/22 10:33:35;;;;;;;;;6.50;4.67;;;;;19.33;46.28;103026.44;2016120;27;2748201;-81
2023/01/22 10:35:01;;;;;;;;;6.00;5.00;;;;;19.39;46.18;103020.00;2024390;27;2749287;-77
2023/01/22 10:36:13;;;;;;;;;6.33;4.33;;;;;19.42;45.83;103030.56;2024355;27;2748902;-77
2023/01/22 10:37:23;;;;;;;;;6.67;5.33;;;;;19.45;45.73;103026.00;2010981;28;2743005;-80
2023/01/22 10:38:34;;;;;;;;;8.00;7.00;;;;;19.51;46.39;103030.22;2036740;27;2746185;-80
2023/01/22 10:39:47;;;;;;;;;6.33;4.33;;;;;19.55;45.60;103033.69;2024822;28;2745091;-80
2023/01/22 10:41:00;;;;;;;;;6.33;5.00;;;;;19.59;45.87;103034.44;2002848;27;2742020;-76
2023/01/22 10:42:16;;;;;;;;;5.00;5.00;;;;;19.62;45.15;103045.88;1993364;27;2746638;-80
2023/01/22 10:43:37;;;;;;;;;3.67;3.67;;;;;19.65;45.23;103027.09;2002281;28;2749900;-80
2023/01/22 10:44:49;;;;;;;;;5.00;3.33;;;;;19.67;45.07;103033.25;2008677;28;2752992;-80
2023/01/22 10:46:11;;;;;;;;;2.00;2.00;;;;;19.70;44.85;103026.94;2038959;27;2736776;-80
2023/01/22 10:47:26;;;;;;;;;5.00;4.00;;;;;19.72;44.59;103027.75;1986610;28;2752519;-75
2023/01/22 10:48:36;;;;;;;;;4.00;4.00;;;;;19.74;44.86;103031.22;2004203;28;2748201;-78
2023/01/22 10:49:59;;;;;;;;;3.33;3.33;;;;;19.76;44.67;103033.84;2021943;27;2739901;-78
2023/01/22 10:51:19;;;;;;;;;4.00;4.00;;;;;19.77;44.59;103035.59;2009808;28;2748201;-78
2023/01/22 10:52:33;;;;;;;;;6.67;4.00;;;;;19.79;44.42;103028.41;2008980;28;2750353;-77
2023/01/22 10:53:56;;;;;;;;;6.33;6.00;;;;;19.81;44.35;103039.88;2008743;27;2749266;-79
2023/01/22 10:55:26;;;;;;;;;9.67;5.00;;;;;19.82;44.33;103038.09;2008168;28;2759767;-78
2023/01/22 10:56:39;;;;;;;;;6.00;5.00;;;;;19.83;43.97;103031.84;2007033;28;2747307;-78
2023/01/22 10:57:55;;;;;;;;;8.00;5.00;;;;;19.83;44.14;103032.69;2008508;28;3467968;-80
2023/01/22 10:59:25;;;;;;;;;3.67;3.67;;;;;19.85;43.68;103029.97;2008842;28;2748343;-79
2023/01/22 11:00:38;;;;;;;;;4.17;4.00;;;;;19.86;44.09;103040.59;2034339;28;2747189;-79
2023/01/22 11:02:00;;;;;;;;;5.00;4.33;;;;;19.89;43.76;103031.59;1986523;28;2745089;-79
2023/01/22 11:03:20;;;;;;;;;6.17;6.17;;;;;19.90;43.61;103038.69;2037949;27;2733613;-80
2023/01/22 11:04:32;;;;;;;;;4.67;4.00;;;;;19.91;43.71;103027.06;1986052;28;2754508;-81
2023/01/22 11:05:46;;;;;;;;;4.67;4.67;;;;;19.93;43.61;103027.03;2033934;28;2734637;-81
2023/01/22 11:07:12;;;;;;;;;6.00;4.67;;;;;19.94;43.24;103023.44;1985846;28;2746235;-81
2023/01/22 11:08:29;;;;;;;;;3.00;3.00;;;;;19.95;43.37;103028.69;2015501;27;2744126;-80
2023/01/22 11:09:50;;;;;;;;;4.00;4.00;;;;;19.96;43.19;103030.44;2012328;28;2752394;-81
2023/01/22 11:11:06;;;;;;;;;7.00;3.33;;;;;19.98;42.89;103019.72;2006426;28;2750321;-81
2023/01/22 11:12:28;;;;;;;;;6.33;5.33;;;;;19.99;43.17;103021.47;2033130;28;2733615;-81
2023/01/22 11:13:52;;;;;;;;;6.00;5.00;;;;;20.01;42.98;103031.16;1982599;28;2748233;-81
2023/01/22 11:15:16;;;;;;;;;4.00;4.00;;;;;20.01;42.91;103024.94;2008859;28;3464809;-81
2023/01/22 11:16:32;;;;;;;;;5.67;3.67;;;;;20.02;42.88;103018.69;2009061;28;2741988;-81
2023/01/22 11:17:48;;;;;;;;;3.00;3.00;;;;;20.02;42.69;103019.56;2008419;28;2746139;-82
2023/01/22 11:19:02;;;;;;;;;4.67;3.67;;;;;20.04;42.81;103013.28;2001987;27;2754443;-81
2023/01/22 11:20:31;;;;;;;;;6.33;4.83;;;;;20.04;42.53;103016.81;2027321;27;2741952;-80
2023/01/22 11:21:51;;;;;;;;;4.00;4.00;;;;;20.05;42.54;103012.38;1985870;27;2744080;-80
2023/01/22 11:23:17;;;;;;;;;8.67;4.33;;;;;20.05;42.35;103017.72;2003899;27;2747237;-81
2023/01/22 11:24:43;;;;;;;;;5.00;3.00;;;;;20.05;42.31;103018.53;2014557;27;2744603;-80
2023/01/22 11:26:12;;;;;;;;;5.67;4.33;;;;;20.05;42.28;103007.03;2007341;28;2745148;-81
2023/01/22 11:27:28;;;;;;;;;6.33;4.33;;;;;20.06;42.25;103014.09;2030078;27;2748272;-81
2023/01/22 11:28:44;;;;;;;;;5.00;4.00;;;;;20.06;42.16;103017.63;1984458;27;2754463;-82
2023/01/22 11:30:01;;;;;;;;;6.67;3.67;;;;;20.06;42.11;103008.75;2005455;27;2754576;-82
2023/01/22 11:31:11;;;;;;;;;5.33;4.00;;;;;20.07;41.82;103010.50;2007288;27;2748173;-81
2023/01/22 11:32:56;;;;;;;;;5.33;5.33;;;;;20.07;41.85;103011.38;2021594;27;2750322;-81
2023/01/22 11:34:44;;;;;;;;;4.00;3.00;;;;;20.07;41.87;103019.38;2008448;27;2754554;-82
2023/01/22 11:36:31;;;;;;;;;4.67;3.33;;;;;20.05;41.39;103007.88;2005564;27;2749291;-81
2023/01/22 11:37:50;;;;;;;;;4.00;3.33;;;;;20.05;41.42;103009.69;2013660;28;2745048;-80
2023/01/22 11:39:32;;;;;;;;;7.00;3.67;;;;;20.04;41.68;103005.28;2009317;28;2750320;-82
2023/01/22 11:40:57;;;;;;;;;3.00;3.00;;;;;20.04;41.85;103002.59;2001737;28;2750340;-80
2023/01/22 11:42:51;;;;;;;;;5.33;3.00;;;;;20.04;41.56;103010.59;2008839;28;2754522;-81
2023/01/22 11:44:34;;;;;;;;;3.67;3.33;;;;;20.04;41.60;103015.94;1979501;28;2747156;-81
2023/01/22 11:46:21;;;;;;;;;4.67;4.67;;;;;20.02;41.40;102998.22;1981155;28;2752484;-81
2023/01/22 11:47:53;;;;;;;;;3.00;3.00;;;;;20.02;41.30;103006.22;2006627;28;2739863;-81
2023/01/22 11:49:09;;;;;;;;;5.00;3.33;;;;;20.03;41.08;102996.38;2004615;28;2745103;-81
2023/01/22 11:50:33;;;;;;;;;4.00;4.00;;;;;20.02;41.45;102995.53;2033399;28;2749259;-81
2023/01/22 11:52:05;;;;;;;;;5.00;5.00;;;;;20.02;41.14;102992.88;1983490;28;3462744;-80
2023/01/22 11:53:43;;;;;;;;;2.00;2.00;;;;;20.04;40.99;102989.25;2000057;27;2751152;-80
2023/01/22 11:55:17;;;;;;;;;3.67;3.67;;;;;20.04;41.13;102992.81;2011964;28;2752532;-80
2023/01/22 11:57:01;;;;;;;;;7.17;6.00;;;;;20.04;40.70;102984.78;2032846;28;2746523;-80
2023/01/22 11:58:34;;;;;;;;;3.67;3.67;;;;;20.04;40.98;102975.91;2011532;28;2731551;-80
2023/01/22 12:00:03;;;;;;;;;2.67;2.67;;;;;20.05;40.76;102973.19;2009653;28;2738326;-81
2023/01/22 12:01:38;;;;;;;;;4.00;4.00;;;;;20.07;41.13;102973.13;1975985;28;2754542;-80
2023/01/22 12:03:10;;;;;;;;;5.00;4.67;;;;;20.07;40.47;102963.34;2007937;28;2743057;-79
2023/01/22 12:04:36;;;;;;;;;4.33;4.00;;;;;20.06;40.61;102960.72;2009005;28;2752531;-79
2023/01/22 12:06:14;;;;;;;;;5.00;4.00;;;;;20.06;40.55;102966.03;2007303;28;2754459;-78
2023/01/22 12:07:30;;;;;;;;;4.67;4.67;;;;;20.07;40.55;102973.13;2008257;27;2741984;-79
2023/01/22 12:08:58;;;;;;;;;3.33;3.33;;;;;20.07;40.27;102965.13;2006989;28;3455449;-78
2023/01/22 12:10:14;;;;;;;;;3.17;2.83;;;;;20.06;40.31;102966.91;2032677;27;2737801;-81
2023/01/22 12:11:45;;;;;;;;;2.33;2.33;;;;;20.07;40.42;102974.00;1985847;27;2748210;-81
2023/01/22 12:12:58;;;;;;;;;6.33;4.00;;;;;20.08;40.26;102969.53;2005006;28;2745061;-81
2023/01/22 12:14:24;;;;;;;;;4.00;3.00;;;;;20.08;40.12;102965.06;2007293;28;2744054;-82
2023/01/22 12:15:40;;;;;;;;;3.00;3.00;;;;;20.09;40.18;102965.94;2008915;28;2750327;-82
2023/01/22 12:17:18;;;;;;;;;3.00;3.00;;;;;20.09;40.21;102961.47;2004451;28;2750321;-82
2023/01/22 12:18:39;;;;;;;;;2.67;2.17;;;;;20.11;40.04;102961.44;2027532;27;2744008;-83
2023/01/22 12:19:50;;;;;;;;;5.00;2.00;;;;;20.10;40.10;102959.69;1980189;27;2746151;-81
2023/01/22 12:21:20;;;;;;;;;3.33;3.00;;;;;20.10;40.09;102965.88;2025519;27;2742404;-80
2023/01/22 12:22:40;;;;;;;;;4.00;4.00;;;;;20.11;39.88;102956.97;2009030;27;2754410;-83
2023/01/22 12:24:23;;;;;;;;;5.00;3.17;;;;;20.10;40.03;102952.50;2030619;28;2743017;-84
2023/01/22 12:26:01;;;;;;;;;6.00;4.00;;;;;20.09;39.61;102950.78;1986891;28;2749290;-82
2023/01/22 12:27:31;;;;;;;;;3.17;3.17;;;;;20.09;39.75;102956.13;2021787;27;2732012;-80
2023/01/22 12:29:05;;;;;;;;;5.00;4.00;;;;;20.09;39.88;102960.59;1974462;27;2750275;-81
2023/01/22 12:30:29;;;;;;;;;4.00;4.00;;;;;20.08;39.70;102956.16;2003785;28;2744123;-79
2023/01/22 12:31:45;;;;;;;;;3.67;3.67;;;;;20.08;39.64;102954.38;2036211;28;2738911;-82
2023/01/22 12:33:00;;;;;;;;;3.33;2.00;;;;;20.08;39.69;102958.84;2006855;27;2743112;-81
2023/01/22 12:34:31;;;;;;;;;6.33;4.00;;;;;20.09;39.56;102955.25;1983385;27;2748178;-80
2023/01/22 12:35:42;;;;;;;;;5.00;4.00;;;;;20.09;39.64;102963.25;2010356;27;2743044;-82
2023/01/22 12:36:54;;;;;;;;;3.00;3.00;;;;;20.09;39.29;102956.13;2023308;27;2738813;-82